Eastmanville, Michigan
Current Conditions -  °F | °C
As of 4:55 AM on Saturday 25 Oct 2014 (Local Time) from KMKG Reporting Station
Broken Clouds Broken Clouds  
Wind Chill: 58°   Ceiling: 4100
Heat Index: 58°   Visibility: 10mi
Dew Point: 50°   Wind: 12mph
Humidity: 75%   Direction: 250°WSW
Pressure: 29.84"   Gusts: 18mph
Location:  43.0662°N, 85.9564°W
Report Text: KMKG 250855Z AUTO 25010G16KT 10SM SCT030 BKN041 14/10 A2984 RMK AO2 SLP106 T01440100 55014
Loading
Personal Weather Stations






























Interactive Weather Map
Tropical Storm Tracking
New forecast layout! Learn more

10-Day Weather Forecast

Advertisements
Track Severe Weather on mobile